• Join FlightAware (Why Join?)
  • Login
  • US Flag 
05:23PM EST


 

Airport Tracker/Info


-or-


 

Live Flight TrackerFlight Track Log ✈ N340PP ✈ 31-Jul-2014 ✈ KHSR - KDIK

Flight Track Log - Related Links

Times and Time Zones

All times are in EDT time to prevent confusion due to time zone crossing. See the N340PP flight status page for this flight to view local times or setup timezone preferences in your user account.

Time Position Orientation Groundspeed Altitude Reporting Facility
EDT Latitude Longitude Course Direction KTS MPH feet Rate Location/Type
07:18PM 43.5914 -103.2008 14° North  Level Estimated
07:20PM 43.6753 -103.1986 North 146 168 12,000  Level Denver Center
07:21PM 43.7169 -103.1928 North 178 205 12,000  Level Denver Center
07:22PM 43.7672 -103.1875 North 174 200 12,000  Level Denver Center
07:23PM 43.8150 -103.1800 North 168 193 12,000  Level Denver Center
07:24PM 43.8611 -103.1761 North 170 196 12,000  Level Denver Center
07:25PM 43.9187 -103.2860 North  Level FlightAware Approximate
07:25PM 43.9094 -103.1714 North 171 197 12,000  Level Denver Center
07:26PM 43.9655 -103.2783 North  Level FlightAware Approximate
07:26PM 43.9572 -103.1639 North 174 200 12,000  Level Denver Center
07:27PM 44.0075 -103.1586 North 172 198 12,000  Level Denver Center
07:28PM 44.0536 -103.1544 North 174 200 12,000  Level Denver Center
07:29PM 44.1053 -103.1456 North 182 209 12,000  Level Denver Center
07:30PM 44.1556 -103.1403 North 187 215 12,000  Level Denver Center
07:31PM 44.2100 -103.1339 North 186 214 12,000  Level Denver Center
07:32PM 44.2597 -103.1256 North 186 214 12,000  Level Denver Center
07:33PM 44.3144 -103.1219 North 186 214 12,000  Level Denver Center
07:34PM 44.3647 -103.1167 North 188 216 12,000  Level Denver Center
07:35PM 44.4169 -103.1108 North 186 214 12,000  Level Denver Center
07:36PM 44.4669 -103.1025 North 186 214 12,000  Level Denver Center
07:37PM 44.5042 -103.0983 North 189 217 12,000  Level Denver Center
07:37PM 44.5233 -103.0956 North 197 227 12,000  Level Denver Center
07:38PM 44.5564 -103.0900 North 189 217 12,000  Level Denver Center
07:39PM 44.6047 -103.0828 North 187 215 12,000  Level Denver Center
07:40PM 44.6550 -103.0756 North 186 214 12,000  Level Denver Center
07:41PM 44.7064 -103.0703 North 185 213 12,000  Level Denver Center
07:42PM 44.7694 -103.0619 North 185 213 12,100  Climbing Denver Center
07:43PM 44.8219 -103.0556 North 186 214 12,000 -60 Descending Denver Center
07:44PM 44.8742 -103.0497 North 186 214 12,000  Level Denver Center
07:45PM 44.9256 -103.0442 North 186 214 12,000  Level Denver Center
07:46PM 44.9761 -103.0369 North 186 214 12,000  Level Denver Center
07:47PM 45.0364 -103.0308 North 186 214 12,000  Level Denver Center
07:48PM 45.0858 -103.0244 North 185 213 12,000  Level Denver Center
07:49PM 45.1347 -103.0194 North 184 212 12,000  Level Denver Center
07:50PM 45.1850 -103.0119 North 184 212 12,000  Level Denver Center
07:52PM 45.2350 -103.0050 North 183 211 12,000  Level Denver Center
07:53PM 45.2833 -102.9997 North 182 209 12,000  Level Denver Center
07:54PM 45.3428 -102.9928 North 181 208 12,000  Level Denver Center
07:55PM 45.3922 -102.9881 North 181 208 12,000  Level Denver Center
07:56PM 45.4417 -102.9806 North 181 208 12,000  Level Denver Center
07:57PM 45.5150 -102.9697 North 181 208 12,000 -60 Level Minneapolis Center
07:58PM 45.5650 -102.9625 North 181 208 11,900  Descending Minneapolis Center
07:59PM 45.6144 -102.9564 North 181 208 12,000 -120 Climbing Minneapolis Center
08:00PM 45.6653 -102.9503 North 181 208 11,700 -300 Descending Minneapolis Center
08:01PM 45.7236 -102.9411 North 182 209 11,500 -240 Descending Minneapolis Center
08:02PM 45.7753 -102.9314 North 182 209 11,300 -300 Descending Minneapolis Center
08:03PM 45.8264 -102.9225 North 184 212 11,000 -420 Descending Minneapolis Center
08:04PM 45.8786 -102.9167 North 185 213 10,500 -540 Descending Minneapolis Center
08:05PM 45.9439 -102.9103 North 191 220 9,900 -480 Descending Minneapolis Center
08:06PM 45.9981 -102.9022 North 192 221 9,600 -420 Descending Minneapolis Center
08:07PM 46.0522 -102.8947 North 192 221 9,100 -480 Descending Minneapolis Center
08:08PM 46.1072 -102.8864 North 193 222 8,700 -420 Descending Minneapolis Center
08:09PM 46.1614 -102.8803 North 194 223 8,300 -360 Descending Minneapolis Center
08:11PM 46.2267 -102.8722 North 194 223 8,000 -300 Descending Minneapolis Center
08:12PM 46.2797 -102.8661 North 194 223 7,700 -360 Descending Minneapolis Center
08:13PM 46.3339 -102.8600 North 194 223 7,300 -420 Descending Minneapolis Center
08:14PM 46.3867 -102.8542 North 194 223 6,900 -480 Descending Minneapolis Center
08:15PM 46.4400 -102.8475 North 194 223 6,400 -300 Descending Minneapolis Center
08:16PM 46.4900 -102.8328 11° North 191 220 6,300 -300 Descending Minneapolis Center
08:17PM 46.5489 -102.8117 14° North 186 214 5,900 -300 Descending Minneapolis Center
08:18PM 46.5992 -102.7953 13° North 186 214 5,700 -240 Descending Minneapolis Center
08:19PM 46.6533 -102.7764 13° North 186 214 5,400 -300 Descending Minneapolis Center